Time;durP1;ratioP1;P1;durP2;ratioP2;P2;SDS_P1;SDS_P2;PMS_P1;PMS_P2;Temp;Humidity;BMP_temperature;BMP_pressure;BME280_temperature;BME280_humidity;BME280_pressure;Samples;Min_cycle;Max_cycle;Signal;HPM_P1;HPM_P2
2022/12/21 00:02:12;;;;;;;46.35;21.38;;;7.00;99.90;;;;;;5053504;28;20094;-61
2022/12/21 00:04:38;;;;;;;48.90;21.98;;;7.00;99.90;;;;;;5085613;28;20032;-62
2022/12/21 00:07:04;;;;;;;114.95;26.27;;;6.90;99.90;;;;;;5072483;28;20042;-60
2022/12/21 00:09:29;;;;;;;44.17;21.15;;;6.90;99.90;;;;;;5065845;28;20042;-62
2022/12/21 00:11:55;;;;;;;104.00;23.77;;;6.90;99.90;;;;;;5080681;28;20548;-62
2022/12/21 00:14:21;;;;;;;51.30;21.98;;;6.80;99.90;;;;;;5079976;28;20577;-61
2022/12/21 00:16:46;;;;;;;70.45;19.90;;;6.80;99.90;;;;;;5064264;28;20043;-61
2022/12/21 00:19:14;;;;;;;98.22;25.95;;;6.80;99.90;;;;;;5080565;28;20043;-62
2022/12/21 00:21:40;;;;;;;95.72;24.05;;;6.90;99.90;;;;;;5066781;28;20490;-62
2022/12/21 00:24:06;;;;;;;73.75;20.58;;;6.70;99.90;;;;;;5080892;28;20307;-62
2022/12/21 00:26:34;;;;;;;90.95;23.30;;;6.60;99.90;;;;;;5081476;28;20040;-62
2022/12/21 00:29:04;;;;;;;63.97;22.15;;;6.60;99.90;;;;;;5077968;28;20127;-61
2022/12/21 00:31:32;;;;;;;69.43;20.83;;;6.60;99.90;;;;;;5081706;28;20506;-61
2022/12/21 00:33:59;;;;;;;60.88;20.85;;;6.50;99.90;;;;;;5066781;28;20655;-60
2022/12/21 00:36:26;;;;;;;43.10;16.20;;;6.50;99.90;;;;;;5061576;28;20054;-60
2022/12/21 00:38:52;;;;;;;47.13;19.70;;;6.50;99.90;;;;;;5050821;28;20472;-60
2022/12/21 00:41:21;;;;;;;46.10;18.67;;;6.40;99.90;;;;;;5034147;28;20128;-61
2022/12/21 00:43:53;;;;;;;122.43;25.65;;;6.40;99.90;;;;;;5032612;28;20081;-60
2022/12/21 00:46:23;;;;;;;45.90;19.17;;;6.30;99.90;;;;;;5050543;28;20047;-60
2022/12/21 00:48:49;;;;;;;48.78;20.23;;;6.20;99.90;;;;;;5040312;28;20079;-60
2022/12/21 00:51:18;;;;;;;77.13;23.20;;;6.20;99.90;;;;;;5081195;28;20043;-60
2022/12/21 00:53:44;;;;;;;96.78;22.73;;;6.20;99.90;;;;;;5079260;28;20131;-60
2022/12/21 00:56:14;;;;;;;35.35;16.65;;;6.20;99.90;;;;;;5067793;28;20052;-59
2022/12/21 00:58:40;;;;;;;45.92;17.17;;;6.20;99.90;;;;;;5074703;28;20052;-60
2022/12/21 01:01:15;;;;;;;171.15;28.00;;;6.10;99.90;;;;;;5076548;28;20087;-61
2022/12/21 01:03:41;;;;;;;59.53;18.00;;;6.10;99.90;;;;;;5084013;28;20050;-61
2022/12/21 01:06:19;;;;;;;174.18;29.38;;;6.00;99.90;;;;;;5084266;28;20039;-60
2022/12/21 01:08:45;;;;;;;63.58;18.55;;;6.00;99.90;;;;;;5084494;28;20044;-60
2022/12/21 01:11:12;;;;;;;88.90;21.17;;;6.00;99.90;;;;;;5068578;28;20096;-60
2022/12/21 01:13:39;;;;;;;101.07;22.20;;;6.00;99.90;;;;;;5080201;28;20371;-60
2022/12/21 01:16:15;;;;;;;93.05;22.65;;;5.90;99.90;;;;;;5067133;28;20072;-61
2022/12/21 01:18:41;;;;;;;40.03;15.98;;;5.90;99.90;;;;;;5077133;28;20036;-60
2022/12/21 01:21:06;;;;;;;66.93;18.25;;;5.90;99.90;;;;;;5062238;28;20063;-60
2022/12/21 01:23:32;;;;;;;57.33;16.23;;;5.90;99.90;;;;;;5064309;28;20127;-61
2022/12/21 01:25:59;;;;;;;64.35;16.73;;;5.90;99.90;;;;;;5082281;28;20075;-61
2022/12/21 01:28:24;;;;;;;110.57;21.92;;;5.80;99.90;;;;;;5066850;28;20289;-60
2022/12/21 01:30:50;;;;;;;64.88;16.50;;;5.80;99.90;;;;;;5081174;28;20040;-60
2022/12/21 01:33:18;;;;;;;68.68;15.50;;;5.70;99.90;;;;;;5082445;28;20040;-61
2022/12/21 01:35:45;;;;;;;55.00;16.98;;;5.70;99.90;;;;;;5075322;28;20600;-61
2022/12/21 01:38:11;;;;;;;99.05;18.15;;;5.70;99.90;;;;;;5087602;28;20395;-60
2022/12/21 01:40:40;;;;;;;66.97;16.50;;;5.60;99.90;;;;;;5064719;28;20040;-61
2022/12/21 01:43:18;;;;;;;98.03;18.15;;;5.60;99.90;;;;;;5087256;28;20048;-60
2022/12/21 01:45:51;;;;;;;37.65;14.25;;;5.60;99.90;;;;;;5087014;28;20040;-60
2022/12/21 01:48:21;;;;;;;42.70;15.87;;;5.60;99.90;;;;;;5087174;28;20036;-60
2022/12/21 01:51:01;;;;;;;42.10;15.00;;;5.50;99.90;;;;;;5085371;28;20063;-59
2022/12/21 01:53:41;;;;;;;79.05;15.82;;;5.50;99.90;;;;;;5074474;28;20498;-61
2022/12/21 01:56:10;;;;;;;92.15;18.02;;;5.50;99.90;;;;;;5089684;28;20101;-59
2022/12/21 01:58:39;;;;;;;48.53;13.45;;;5.50;99.90;;;;;;5088823;28;20108;-60
2022/12/21 02:01:06;;;;;;;130.63;20.65;;;5.40;99.90;;;;;;5093896;28;20495;-61
2022/12/21 02:03:44;;;;;;;67.10;14.82;;;5.40;99.90;;;;;;5083856;28;20446;-60
2022/12/21 02:06:17;;;;;;;64.95;13.20;;;5.40;99.90;;;;;;5080646;28;20304;-61
2022/12/21 02:08:43;;;;;;;62.03;14.18;;;5.30;99.90;;;;;;5078592;28;20049;-60
2022/12/21 02:11:10;;;;;;;36.15;13.07;;;5.30;99.90;;;;;;5066175;28;20043;-61
2022/12/21 02:13:40;;;;;;;48.92;13.32;;;5.30;99.90;;;;;;5093288;28;20467;-61
2022/12/21 02:16:39;;;;;;;29.75;13.40;;;5.30;99.90;;;;;;5090568;28;20048;-62
2022/12/21 02:19:40;;;;;;;50.78;13.52;;;5.20;99.90;;;;;;5089070;28;20490;-61
2022/12/21 02:22:26;;;;;;;71.18;17.17;;;5.20;99.90;;;;;;5072653;28;20200;-61
2022/12/21 02:25:14;;;;;;;56.78;15.98;;;5.20;99.90;;;;;;5067934;28;20122;-60
2022/12/21 02:28:11;;;;;;;31.10;13.93;;;5.20;99.90;;;;;;5083190;28;20048;-61
2022/12/21 02:31:07;;;;;;;49.63;14.85;;;5.20;99.90;;;;;;5085081;28;20040;-60
2022/12/21 02:34:02;;;;;;;40.95;14.82;;;5.20;99.90;;;;;;5065519;28;20044;-60
2022/12/21 02:36:51;;;;;;;87.47;16.23;;;5.20;99.90;;;;;;5055300;28;20049;-61
2022/12/21 02:39:56;;;;;;;64.43;15.77;;;5.20;99.90;;;;;;5058025;28;20307;-61
2022/12/21 02:45:52;;;;;;;55.47;12.93;;;5.10;99.90;;;;;;5055325;28;20052;-59
2022/12/21 02:48:35;;;;;;;63.45;13.75;;;5.10;99.90;;;;;;5017326;28;20036;-59
2022/12/21 02:51:05;;;;;;;75.35;14.80;;;5.10;99.90;;;;;;5035256;28;20062;-60
2022/12/21 02:53:38;;;;;;;66.90;12.85;;;5.20;99.90;;;;;;5056892;28;20049;-59
2022/12/21 02:56:04;;;;;;;57.70;11.48;;;5.10;99.90;;;;;;5039839;28;20033;-60
2022/12/21 02:58:33;;;;;;;65.50;14.60;;;5.10;99.90;;;;;;5056034;28;20047;-59
2022/12/21 03:01:26;;;;;;;112.28;17.17;;;5.10;99.90;;;;;;5059878;28;20036;-59
2022/12/21 03:04:10;;;;;;;36.47;11.10;;;5.10;99.90;;;;;;5055879;28;20513;-60
2022/12/21 03:06:54;;;;;;;85.57;14.82;;;5.10;99.90;;;;;;5054856;28;20044;-60
2022/12/21 03:09:48;;;;;;;33.42;10.88;;;5.00;99.90;;;;;;5058235;28;20532;-60
2022/12/21 03:12:34;;;;;;;43.38;12.45;;;5.10;99.90;;;;;;5050522;28;20696;-59
2022/12/21 03:15:32;;;;;;;51.78;14.80;;;5.10;99.90;;;;;;5058334;28;20618;-59
2022/12/21 03:18:07;;;;;;;31.60;11.20;;;5.10;99.90;;;;;;5054080;28;20805;-60
2022/12/21 03:20:56;;;;;;;68.88;13.27;;;5.10;99.90;;;;;;5040976;28;20409;-60
2022/12/21 03:23:31;;;;;;;39.00;10.73;;;5.10;99.90;;;;;;5055674;28;20146;-60
2022/12/21 03:26:12;;;;;;;96.63;14.80;;;5.10;99.90;;;;;;5054051;28;20047;-60
2022/12/21 03:28:41;;;;;;;77.72;13.10;;;5.10;99.90;;;;;;5054691;28;20040;-60
2022/12/21 03:31:13;;;;;;;42.63;11.23;;;5.00;99.90;;;;;;5052961;28;20053;-59
2022/12/21 03:33:45;;;;;;;85.68;14.48;;;5.00;99.90;;;;;;5042162;28;20052;-61
2022/12/21 03:36:20;;;;;;;88.47;14.45;;;5.00;99.90;;;;;;5064576;28;21349;-59
2022/12/21 03:38:56;;;;;;;43.50;11.32;;;5.10;99.90;;;;;;5053770;28;20039;-60
2022/12/21 03:41:39;;;;;;;88.30;12.85;;;5.00;99.90;;;;;;5043741;28;20411;-60
2022/12/21 03:44:08;;;;;;;72.35;13.02;;;5.00;99.90;;;;;;5039793;28;20047;-60
2022/12/21 03:46:50;;;;;;;68.85;12.25;;;5.00;99.90;;;;;;5052242;28;20410;-60
2022/12/21 03:49:36;;;;;;;61.17;12.13;;;5.00;99.90;;;;;;5057245;28;20268;-60
2022/12/21 03:52:10;;;;;;;59.08;11.65;;;5.00;99.90;;;;;;5051867;28;20153;-60
2022/12/21 03:54:43;;;;;;;;;;;5.00;99.90;;;;;;5062518;28;20059;-59
2022/12/21 03:57:09;;;;;;;27.80;9.27;;;5.00;99.90;;;;;;5055259;28;20294;-59
2022/12/21 03:59:44;;;;;;;45.90;10.70;;;5.00;99.90;;;;;;5042536;28;20032;-61
2022/12/21 04:02:41;;;;;;;44.67;11.93;;;5.00;99.90;;;;;;5054748;28;20143;-62
2022/12/21 04:05:16;;;;;;;41.05;11.25;;;5.00;99.90;;;;;;5038809;28;20480;-61
2022/12/21 04:07:43;;;;;;;32.92;11.57;;;5.00;99.90;;;;;;5055201;28;20447;-62
2022/12/21 04:10:13;;;;;;;43.65;11.82;;;5.00;99.90;;;;;;5047361;28;20044;-61
2022/12/21 04:12:39;;;;;;;81.25;13.15;;;5.10;99.90;;;;;;5056884;28;20410;-60
2022/12/21 04:15:23;;;;;;;48.42;11.60;;;5.00;99.90;;;;;;5060102;28;20036;-61
2022/12/21 04:17:54;;;;;;;36.35;11.63;;;5.00;99.90;;;;;;5062385;28;20322;-61
2022/12/21 04:20:24;;;;;;;64.45;13.90;;;5.00;99.90;;;;;;5055006;28;20067;-59
2022/12/21 04:28:29;;;;;;;54.80;13.55;;;5.00;99.90;;;;;;5053388;28;20590;-60
2022/12/21 04:30:56;;;;;;;66.80;13.85;;;5.10;99.90;;;;;;5056735;28;20190;-60
2022/12/21 04:33:23;;;;;;;32.97;12.68;;;5.00;99.90;;;;;;5052211;28;21581;-60
2022/12/21 04:38:36;;;;;;;116.63;18.33;;;5.00;99.90;;;;;;5049809;28;20048;-59
2022/12/21 04:41:03;;;;;;;41.38;12.73;;;5.10;99.90;;;;;;5047688;28;20051;-59
2022/12/21 04:43:29;;;;;;;71.60;14.38;;;5.10;99.90;;;;;;5056897;28;20067;-60
2022/12/21 04:46:02;;;;;;;46.88;13.02;;;5.10;99.90;;;;;;5055307;28;20036;-60
2022/12/21 04:48:28;;;;;;;46.25;11.95;;;5.10;99.90;;;;;;5057183;28;20044;-60
2022/12/21 04:50:54;;;;;;;69.95;14.15;;;5.10;99.90;;;;;;5045010;28;20048;-60
2022/12/21 04:53:23;;;;;;;53.35;13.10;;;5.10;99.90;;;;;;5056806;28;20090;-61
2022/12/21 04:55:48;;;;;;;33.65;12.57;;;5.10;99.90;;;;;;5057563;28;20052;-60
2022/12/21 04:58:17;;;;;;;43.00;15.20;;;5.10;99.90;;;;;;5061685;28;20418;-61
2022/12/21 05:00:43;;;;;;;54.33;14.15;;;5.10;99.90;;;;;;5060790;28;20050;-60
2022/12/21 05:03:09;;;;;;;52.28;13.02;;;5.10;99.90;;;;;;5061682;28;20043;-59
2022/12/21 05:05:34;;;;;;;55.90;14.60;;;5.10;99.90;;;;;;5059351;28;20048;-60
2022/12/21 05:08:00;;;;;;;32.85;12.75;;;5.10;99.90;;;;;;5065966;28;20383;-60
2022/12/21 05:10:26;;;;;;;53.13;14.18;;;5.10;99.90;;;;;;5058307;28;20047;-60
2022/12/21 05:12:51;;;;;;;36.25;12.30;;;5.10;99.90;;;;;;5055933;28;20046;-59
2022/12/21 05:15:17;;;;;;;56.95;14.70;;;5.10;99.90;;;;;;5061608;28;20055;-60
2022/12/21 05:17:49;;;;;;;31.17;12.07;;;5.10;99.90;;;;;;5044731;28;20048;-60
2022/12/21 05:20:15;;;;;;;33.88;12.07;;;5.10;99.90;;;;;;5055842;28;20607;-61
2022/12/21 05:22:44;;;;;;;38.72;13.50;;;5.10;99.90;;;;;;5047029;28;20093;-60
2022/12/21 05:25:10;;;;;;;64.07;14.75;;;5.10;99.90;;;;;;5046040;28;20044;-60
2022/12/21 05:27:36;;;;;;;60.88;15.13;;;5.10;99.90;;;;;;5059128;28;20079;-60
2022/12/21 05:30:02;;;;;;;80.10;17.33;;;5.10;99.90;;;;;;5052915;28;20044;-60
2022/12/21 05:32:27;;;;;;;41.13;13.48;;;5.10;99.90;;;;;;5045744;28;20095;-60
2022/12/21 05:34:53;;;;;;;78.30;16.30;;;5.00;99.90;;;;;;5056972;28;20437;-60
2022/12/21 05:37:19;;;;;;;54.80;15.77;;;5.10;99.90;;;;;;5058240;28;21616;-60
2022/12/21 05:39:44;;;;;;;32.03;12.82;;;5.10;99.90;;;;;;5034387;28;20047;-61
2022/12/21 05:42:10;;;;;;;43.63;13.82;;;5.00;99.90;;;;;;5055031;28;20589;-61
2022/12/21 05:44:36;;;;;;;32.75;13.48;;;5.00;99.90;;;;;;5057535;28;20048;-60
2022/12/21 05:47:04;;;;;;;32.22;12.77;;;5.00;99.90;;;;;;5060762;28;20048;-59
2022/12/21 05:49:30;;;;;;;35.30;12.70;;;5.00;99.90;;;;;;5041105;28;20056;-60
2022/12/21 05:51:56;;;;;;;64.75;15.52;;;5.00;99.90;;;;;;5042828;28;20332;-61
2022/12/21 05:54:21;;;;;;;68.72;16.25;;;5.00;99.90;;;;;;5059532;28;20051;-60
2022/12/21 05:56:47;;;;;;;69.53;15.70;;;5.00;99.90;;;;;;5065472;28;20040;-60
2022/12/21 05:59:15;;;;;;;48.70;14.52;;;5.00;99.90;;;;;;5056729;28;20050;-59
2022/12/21 06:01:41;;;;;;;114.25;18.92;;;5.00;99.90;;;;;;5042918;22;20526;-66
2022/12/21 06:04:07;;;;;;;45.53;13.32;;;5.00;99.90;;;;;;5004720;28;20053;-65
2022/12/21 06:06:33;;;;;;;52.28;14.10;;;5.00;99.90;;;;;;5007279;28;20041;-65
2022/12/21 06:08:58;;;;;;;87.85;15.68;;;5.00;99.90;;;;;;5016393;28;20076;-65
2022/12/21 06:11:25;;;;;;;66.10;13.88;;;5.00;99.90;;;;;;5011740;28;20080;-65
2022/12/21 06:13:53;;;;;;;60.25;14.25;;;5.00;99.90;;;;;;5016772;28;20072;-65
2022/12/21 06:16:21;;;;;;;50.33;13.13;;;5.10;99.90;;;;;;5017442;28;20209;-65
2022/12/21 06:18:47;;;;;;;64.72;13.43;;;5.10;99.90;;;;;;5002726;28;20156;-64
2022/12/21 06:21:14;;;;;;;92.75;18.17;;;5.10;99.90;;;;;;4984657;28;20060;-65
2022/12/21 06:23:45;;;;;;;56.38;12.85;;;5.00;99.90;;;;;;5035390;28;20045;-65
2022/12/21 06:26:16;;;;;;;53.38;14.02;;;5.10;99.90;;;;;;5033533;28;20056;-63
2022/12/21 06:28:45;;;;;;;31.40;13.23;;;5.10;99.90;;;;;;5017862;28;20056;-63
2022/12/21 06:31:12;;;;;;;47.38;13.80;;;5.10;99.90;;;;;;5020737;28;20057;-64
2022/12/21 06:33:39;;;;;;;55.53;12.85;;;5.10;99.90;;;;;;5016092;28;20049;-64
2022/12/21 06:36:06;;;;;;;28.20;12.25;;;5.10;99.90;;;;;;5020835;28;20047;-64
2022/12/21 06:38:33;;;;;;;35.42;11.75;;;5.10;99.90;;;;;;5002926;28;20174;-63
2022/12/21 06:41:01;;;;;;;70.65;15.90;;;5.10;99.90;;;;;;5019396;28;20052;-64
2022/12/21 06:43:29;;;;;;;42.10;14.00;;;5.10;99.90;;;;;;5038554;28;20041;-64
2022/12/21 06:46:03;;;;;;;54.45;14.32;;;5.10;99.90;;;;;;5011466;28;20403;-64
2022/12/21 06:48:31;;;;;;;66.25;15.88;;;5.10;99.90;;;;;;5023028;28;20167;-64
2022/12/21 06:50:59;;;;;;;39.50;12.57;;;5.10;99.90;;;;;;5018733;28;20033;-64
2022/12/21 06:53:27;;;;;;;53.28;15.57;;;5.10;99.90;;;;;;5016320;28;20144;-64
2022/12/21 06:56:05;;;;;;;45.28;14.55;;;5.10;99.90;;;;;;5008230;28;20134;-64
2022/12/21 06:58:32;;;;;;;49.67;14.85;;;5.10;99.90;;;;;;5010022;28;20045;-63
2022/12/21 07:01:04;;;;;;;64.53;18.25;;;5.20;99.90;;;;;;5020036;28;20326;-63
2022/12/21 07:03:30;;;;;;;37.00;14.10;;;5.20;99.90;;;;;;5019829;28;20155;-63
2022/12/21 07:05:56;;;;;;;38.75;14.45;;;5.20;99.90;;;;;;5013647;28;20148;-63
2022/12/21 07:08:22;;;;;;;56.65;18.05;;;5.20;99.90;;;;;;5020536;28;20697;-64
2022/12/21 07:10:48;;;;;;;53.05;16.65;;;5.20;99.90;;;;;;5013498;28;20582;-64
2022/12/21 07:13:13;;;;;;;96.68;21.65;;;5.20;99.90;;;;;;5013937;28;20033;-63
2022/12/21 07:15:39;;;;;;;60.80;16.95;;;5.20;99.90;;;;;;5031070;28;20399;-64
2022/12/21 07:18:05;;;;;;;58.05;18.90;;;5.20;99.90;;;;;;5014300;28;20499;-64
2022/12/21 07:20:31;;;;;;;43.67;16.70;;;5.20;99.90;;;;;;5044885;28;22090;-64
2022/12/21 07:23:00;;;;;;;49.83;18.52;;;5.30;99.90;;;;;;4996863;28;20175;-63
2022/12/21 07:25:25;;;;;;;55.35;19.05;;;5.30;99.90;;;;;;5031109;28;20311;-64
2022/12/21 07:27:51;;;;;;;66.10;19.15;;;5.30;99.90;;;;;;5020954;28;20049;-63
2022/12/21 07:30:17;;;;;;;75.43;19.48;;;5.30;99.90;;;;;;5007934;28;20079;-63
2022/12/21 07:32:43;;;;;;;50.35;18.20;;;5.30;99.90;;;;;;5031845;28;20056;-63
2022/12/21 07:35:09;;;;;;;39.88;17.65;;;5.30;99.90;;;;;;5031570;28;20540;-64
2022/12/21 07:37:34;;;;;;;67.90;20.95;;;5.30;99.90;;;;;;5036638;28;20423;-63
2022/12/21 07:40:00;;;;;;;65.63;20.48;;;5.40;99.90;;;;;;5021696;28;20147;-64
2022/12/21 07:42:26;;;;;;;53.15;19.33;;;5.40;99.90;;;;;;5015969;28;20140;-64
2022/12/21 07:44:51;;;;;;;75.18;23.35;;;5.40;99.90;;;;;;4993874;28;20155;-63
2022/12/21 07:47:17;;;;;;;61.50;20.77;;;5.50;99.90;;;;;;5002858;28;20537;-63
2022/12/21 07:49:43;;;;;;;66.35;20.67;;;5.40;99.90;;;;;;5010497;28;20036;-64
2022/12/21 07:52:09;;;;;;;81.75;22.88;;;5.40;99.90;;;;;;5004906;28;20495;-63
2022/12/21 07:54:34;;;;;;;58.95;20.23;;;5.40;99.90;;;;;;4994482;28;20080;-63
2022/12/21 07:57:00;;;;;;;67.95;21.42;;;5.40;99.90;;;;;;5020502;28;20051;-64
2022/12/21 07:59:26;;;;;;;72.47;21.92;;;5.40;99.90;;;;;;5013788;28;20041;-64
2022/12/21 08:01:51;;;;;;;77.35;21.92;;;5.40;99.90;;;;;;5012829;28;20052;-63
2022/12/21 08:04:17;;;;;;;79.40;21.30;;;5.40;99.90;;;;;;5009197;28;20108;-63
2022/12/21 08:06:43;;;;;;;58.83;21.55;;;5.40;99.90;;;;;;5013655;28;20045;-63
2022/12/21 08:09:09;;;;;;;37.47;17.70;;;5.40;99.90;;;;;;4997798;28;20041;-64
2022/12/21 08:11:35;;;;;;;62.80;20.60;;;5.40;99.90;;;;;;5012768;28;20041;-64
2022/12/21 08:14:01;;;;;;;78.82;22.05;;;5.40;99.90;;;;;;5010888;28;20099;-64
2022/12/21 08:16:27;;;;;;;46.00;18.17;;;5.40;99.90;;;;;;4993820;28;22101;-64
2022/12/21 08:18:55;;;;;;;61.53;22.00;;;5.40;99.90;;;;;;4994313;28;20128;-64
2022/12/21 08:21:21;;;;;;;71.28;22.10;;;5.40;99.90;;;;;;4998024;28;20590;-64
2022/12/21 08:23:48;;;;;;;61.95;20.13;;;5.40;99.90;;;;;;5008697;28;20051;-63
2022/12/21 08:26:14;;;;;;;115.82;25.75;;;5.40;99.90;;;;;;4998724;28;20108;-63
2022/12/21 08:28:40;;;;;;;51.78;20.42;;;5.40;99.90;;;;;;4995881;28;20563;-64
2022/12/21 08:31:13;;;;;;;68.10;22.85;;;5.40;99.90;;;;;;5010558;28;20439;-64
2022/12/21 08:33:43;;;;;;;66.03;23.80;;;5.50;99.90;;;;;;5016771;28;20084;-64
2022/12/21 08:36:14;;;;;;;55.78;22.50;;;5.50;99.90;;;;;;5013547;28;20053;-64
2022/12/21 08:38:40;;;;;;;90.40;25.58;;;5.60;99.90;;;;;;5010895;28;20401;-64
2022/12/21 08:41:06;;;;;;;110.60;28.77;;;5.60;99.90;;;;;;5015479;28;20036;-64
2022/12/21 08:43:35;;;;;;;65.28;23.95;;;5.60;99.90;;;;;;5017483;28;20072;-64
2022/12/21 08:46:06;;;;;;;87.05;25.88;;;5.70;99.90;;;;;;5007582;28;20057;-64
2022/12/21 08:48:33;;;;;;;65.85;23.88;;;5.70;99.90;;;;;;5009149;28;20527;-64
2022/12/21 08:50:59;;;;;;;78.00;29.63;;;5.70;99.90;;;;;;5018080;28;20045;-63
2022/12/21 08:53:26;;;;;;;71.35;26.75;;;5.80;99.90;;;;;;5020878;28;20099;-64
2022/12/21 08:55:52;;;;;;;83.13;26.83;;;5.80;99.90;;;;;;4995245;28;20056;-64
2022/12/21 08:58:18;;;;;;;64.63;25.55;;;6.10;99.90;;;;;;5011624;28;20053;-64
2022/12/21 09:00:45;;;;;;;68.85;27.10;;;5.90;99.90;;;;;;5016212;28;20684;-64
2022/12/21 09:03:11;;;;;;;68.88;27.35;;;5.90;99.90;;;;;;4995975;28;20502;-63
2022/12/21 09:05:38;;;;;;;83.00;26.85;;;5.90;99.90;;;;;;5018298;28;20142;-64
2022/12/21 09:08:04;;;;;;;76.53;27.70;;;6.00;99.90;;;;;;5022334;28;20040;-64
2022/12/21 09:10:32;;;;;;;98.25;29.10;;;6.00;99.90;;;;;;4997546;28;20496;-62
2022/12/21 09:12:58;;;;;;;74.75;27.83;;;6.00;99.90;;;;;;5016658;28;20076;-64
2022/12/21 09:15:23;;;;;;;83.40;30.88;;;6.00;99.90;;;;;;4996331;28;20464;-64
2022/12/21 09:17:50;;;;;;;64.45;26.83;;;6.00;99.90;;;;;;5017972;28;20090;-64
2022/12/21 09:20:17;;;;;;;69.95;28.77;;;6.00;99.90;;;;;;4996662;28;20041;-64
2022/12/21 09:22:42;;;;;;;68.97;28.80;;;6.00;99.90;;;;;;5011262;28;20140;-64
2022/12/21 09:25:09;;;;;;;68.50;29.98;;;6.00;99.90;;;;;;5019795;28;20045;-64
2022/12/21 09:27:35;;;;;;;76.85;30.77;;;6.00;99.90;;;;;;5018630;28;20060;-64
2022/12/21 09:30:00;;;;;;;124.95;36.03;;;6.10;99.90;;;;;;5020103;28;20408;-64
2022/12/21 09:32:26;;;;;;;127.57;40.03;;;6.10;99.90;;;;;;5020378;28;20041;-64
2022/12/21 09:34:52;;;;;;;81.18;30.80;;;6.10;99.90;;;;;;5017393;28;20494;-64
2022/12/21 09:37:18;;;;;;;126.93;35.78;;;6.10;99.90;;;;;;5015035;28;20045;-64
2022/12/21 09:39:44;;;;;;;84.00;32.03;;;6.10;99.90;;;;;;4998845;28;20049;-63
2022/12/21 09:42:13;;;;;;;93.05;33.67;;;6.20;99.90;;;;;;5012112;28;20263;-63
2022/12/21 09:45:13;;;;;;;81.38;32.05;;;6.20;99.90;;;;;;5000551;28;20061;-64
2022/12/21 09:48:00;;;;;;;102.82;33.92;;;6.20;99.90;;;;;;4987132;28;20061;-64
2022/12/21 09:50:31;;;;;;;87.82;33.45;;;6.20;99.90;;;;;;5013406;28;20059;-64
2022/12/21 09:53:38;;;;;;;98.95;33.55;;;6.30;99.90;;;;;;5009504;28;21021;-63
2022/12/21 09:56:05;;;;;;;112.65;33.80;;;6.30;99.90;;;;;;5013961;28;20068;-63
2022/12/21 09:58:46;;;;;;;89.82;33.58;;;6.30;99.90;;;;;;4993024;28;20135;-64
2022/12/21 10:01:16;;;;;;;83.05;33.47;;;6.30;99.90;;;;;;5021306;28;20048;-64
2022/12/21 10:04:04;;;;;;;100.38;34.10;;;6.30;99.90;;;;;;5007809;28;20044;-64
2022/12/21 10:06:39;;;;;;;101.97;34.78;;;6.30;99.90;;;;;;5021753;28;20046;-64
2022/12/21 10:09:13;;;;;;;86.65;32.92;;;6.30;99.90;;;;;;5017218;28;20435;-64
2022/12/21 10:12:06;;;;;;;90.47;33.72;;;6.30;99.90;;;;;;5003738;28;20040;-64
2022/12/21 10:15:00;;;;;;;99.68;34.45;;;6.40;99.90;;;;;;5024349;28;20110;-64
2022/12/21 10:17:39;;;;;;;78.10;31.73;;;6.40;99.90;;;;;;5021585;28;20061;-64
2022/12/21 10:20:41;;;;;;;68.85;28.13;;;6.40;99.90;;;;;;5019241;28;20857;-64
2022/12/21 10:23:21;;;;;;;95.38;29.27;;;6.40;99.90;;;;;;5013561;28;20048;-64
2022/12/21 10:25:52;;;;;;;76.20;27.77;;;6.40;99.90;;;;;;5025734;28;20052;-64
2022/12/21 10:28:50;;;;;;;78.00;28.17;;;6.40;99.90;;;;;;5018416;28;20558;-64
2022/12/21 10:31:26;;;;;;;83.18;30.00;;;6.50;99.90;;;;;;4992174;28;20056;-64
2022/12/21 10:33:58;;;;;;;71.28;29.02;;;6.50;99.90;;;;;;4998687;28;20148;-64
2022/12/21 10:36:37;;;;;;;81.88;30.15;;;6.50;99.90;;;;;;4999790;28;20053;-63
2022/12/21 10:39:11;;;;;;;78.57;28.55;;;6.50;99.90;;;;;;5018499;28;20577;-64
2022/12/21 10:41:41;;;;;;;77.00;29.10;;;6.50;99.90;;;;;;5018862;28;20506;-64
2022/12/21 10:44:11;;;;;;;75.27;29.07;;;6.50;99.90;;;;;;5035018;28;20036;-64
2022/12/21 10:46:37;;;;;;;68.50;28.98;;;6.60;99.90;;;;;;5017129;28;20714;-64
2022/12/21 10:49:25;;;;;;;72.07;29.00;;;6.60;99.90;;;;;;5007601;28;20153;-64
2022/12/21 10:51:51;;;;;;;73.80;28.70;;;6.70;99.90;;;;;;5014065;28;20049;-64
2022/12/21 10:54:26;;;;;;;74.45;28.92;;;6.70;99.90;;;;;;5019696;28;20081;-62
2022/12/21 10:56:53;;;;;;;82.70;29.63;;;6.70;99.90;;;;;;5024654;28;20060;-63
2022/12/21 10:59:26;;;;;;;66.43;27.15;;;6.70;99.90;;;;;;5014514;28;20076;-63
2022/12/21 11:01:52;;;;;;;74.97;27.98;;;6.70;99.90;;;;;;5022046;28;20128;-65
2022/12/21 11:04:24;;;;;;;79.47;29.15;;;6.70;99.90;;;;;;4998581;28;20797;-64
2022/12/21 11:07:24;;;;;;;77.88;30.77;;;6.80;99.90;;;;;;5012774;28;21154;-64
2022/12/21 11:10:02;;;;;;;75.60;28.58;;;6.80;99.90;;;;;;5016409;28;20040;-64
2022/12/21 11:12:28;;;;;;;71.80;26.58;;;6.80;99.90;;;;;;5015153;28;20045;-64
2022/12/21 11:14:55;;;;;;;69.85;28.52;;;6.80;99.90;;;;;;5034812;28;20045;-64
2022/12/21 11:17:29;;;;;;;79.13;28.73;;;6.80;99.90;;;;;;5037334;28;20128;-64
2022/12/21 11:19:58;;;;;;;65.63;26.70;;;6.80;99.90;;;;;;5011298;28;20038;-64
2022/12/21 11:22:27;;;;;;;70.20;28.02;;;6.90;99.90;;;;;;5011401;28;20044;-64
2022/12/21 11:24:56;;;;;;;64.82;26.17;;;6.90;99.90;;;;;;5028201;28;20055;-64
2022/12/21 11:27:29;;;;;;;67.15;26.45;;;7.00;99.90;;;;;;4999381;28;20045;-64
2022/12/21 11:30:25;;;;;;;67.90;28.08;;;7.10;99.90;;;;;;5011120;28;20048;-65
2022/12/21 11:32:53;;;;;;;62.75;24.30;;;7.20;99.90;;;;;;5007621;28;20059;-64
2022/12/21 11:35:28;;;;;;;66.65;23.75;;;7.30;99.90;;;;;;5019118;28;20049;-65
2022/12/21 11:38:08;;;;;;;58.28;23.20;;;7.40;99.90;;;;;;5020382;28;20073;-64
2022/12/21 11:40:34;;;;;;;57.88;22.63;;;7.40;99.90;;;;;;5052339;28;20033;-64
2022/12/21 11:43:00;;;;;;;49.50;21.75;;;7.50;99.90;;;;;;5052595;28;20414;-64
2022/12/21 11:45:51;;;;;;;51.42;20.80;;;7.60;99.90;;;;;;5042467;28;20291;-64
2022/12/21 11:48:26;;;;;;;45.55;19.70;;;7.60;99.90;;;;;;5031870;28;20045;-64
2022/12/21 11:51:06;;;;;;;51.90;20.23;;;7.70;99.90;;;;;;5033229;28;20053;-65
2022/12/21 11:53:53;;;;;;;42.67;18.52;;;7.60;99.90;;;;;;5012852;28;20045;-64
2022/12/21 11:56:39;;;;;;;43.97;19.42;;;7.80;99.90;;;;;;5038177;28;20069;-64
2022/12/21 11:59:13;;;;;;;38.60;17.83;;;7.90;99.90;;;;;;5041513;28;20531;-64
2022/12/21 12:02:05;;;;;;;42.05;18.63;;;7.90;99.90;;;;;;5053809;22;20060;-57
2022/12/21 12:04:43;;;;;;;44.95;19.52;;;8.00;99.90;;;;;;5023002;28;20075;-57
2022/12/21 12:07:56;;;;;;;48.15;19.40;;;8.10;99.90;;;;;;5036865;28;20038;-59
2022/12/21 12:11:02;;;;;;;44.67;19.52;;;8.10;99.90;;;;;;5022203;28;20456;-58
2022/12/21 12:13:46;;;;;;;51.22;20.92;;;8.10;99.90;;;;;;5054132;28;20573;-58
2022/12/21 12:16:31;;;;;;;;;;;8.20;99.90;;;;;;5024803;28;20098;-59
2022/12/21 12:19:26;;;;;;;51.40;20.30;;;8.20;99.90;;;;;;5024021;28;20098;-59
2022/12/21 12:22:10;;;;;;;;;;;8.20;99.90;;;;;;5040456;28;20059;-59
2022/12/21 12:25:04;;;;;;;51.00;21.02;;;8.30;99.90;;;;;;5048843;28;19917;-58
2022/12/21 12:28:01;;;;;;;47.55;20.25;;;8.20;99.90;;;;;;5027591;28;20045;-58
2022/12/21 12:30:54;;;;;;;46.08;20.27;;;8.20;99.90;;;;;;5049896;28;20033;-59
2022/12/21 12:33:48;;;;;;;38.83;19.30;;;8.20;99.90;;;;;;5059021;28;21622;-59
2022/12/21 12:36:41;;;;;;;42.67;19.88;;;8.20;99.90;;;;;;5051781;28;20048;-57
2022/12/21 12:39:19;;;;;;;47.83;20.42;;;8.30;99.90;;;;;;5039442;28;20650;-58
2022/12/21 12:42:03;;;;;;;47.20;21.02;;;8.30;99.90;;;;;;5022330;28;20479;-57
2022/12/21 12:44:47;;;;;;;47.88;20.38;;;8.30;99.90;;;;;;5055904;28;20049;-60
2022/12/21 12:47:28;;;;;;;;;;;8.30;99.90;;;;;;5035910;28;20060;-57
2022/12/21 12:50:11;;;;;;;42.72;22.35;;;8.30;99.90;;;;;;5053857;28;20429;-58
2022/12/21 12:53:08;;;;;;;43.92;23.88;;;8.20;99.90;;;;;;5058368;28;20044;-56
2022/12/21 12:55:36;;;;;;;52.03;25.08;;;8.20;99.90;;;;;;5026821;28;20040;-58
2022/12/21 12:58:10;;;;;;;48.85;27.02;;;8.10;99.90;;;;;;5039811;28;20104;-57
2022/12/21 13:01:04;;;;;;;48.47;26.15;;;8.00;99.90;;;;;;5056095;28;20040;-59
2022/12/21 13:03:57;;;;;;;44.15;25.67;;;8.00;99.90;;;;;;5012974;28;20056;-58
2022/12/21 13:06:48;;;;;;;48.15;27.05;;;8.00;99.90;;;;;;5039491;28;20279;-57
2022/12/21 13:09:51;;;;;;;49.17;26.08;;;8.00;99.90;;;;;;5054082;28;20043;-57
2022/12/21 13:12:38;;;;;;;48.30;25.20;;;7.90;99.90;;;;;;5044929;28;20517;-57
2022/12/21 13:15:16;;;;;;;45.40;26.45;;;7.90;99.90;;;;;;5033602;28;20571;-59
2022/12/21 13:17:48;;;;;;;48.75;27.17;;;8.10;99.90;;;;;;5048289;28;20468;-58
2022/12/21 13:20:18;;;;;;;50.70;27.63;;;7.90;99.90;;;;;;5052445;28;20259;-59